Hubly, Illinois
Current Conditions -  °F | °C
As of 2:52 PM on Thursday 23 Oct 2014 (Local Time) from KSPI Reporting Station
Clear Clear  
Wind Chill: 62°   Ceiling: Unl
Heat Index: 62°   Visibility: 10mi
Dew Point: 43°   Wind: 9mph
Humidity: 50%   Direction: 180°S
Pressure: 30.12"   Gusts: NA
Location:  40.0814°N, 89.6743°W
Report Text: KSPI 231952Z 18008KT 10SM CLR 17/06 A3012 RMK AO2 SLP201 T01670061
Loading
Personal Weather Stations






























Interactive Weather Map
Tropical Storm Tracking
New forecast layout! Learn more

10-Day Weather Forecast

Advertisements
Track Severe Weather on mobile